sensor_id;sensor_type;location;lat;lon;timestamp;P1;durP1;ratioP1;P2;durP2;ratioP2
17991;SDS011;9121;50.926;5.340;2023-02-15T00:01:47;69.70;;;29.03;;
17991;SDS011;9121;50.926;5.340;2023-02-15T00:04:17;77.57;;;29.50;;
17991;SDS011;9121;50.926;5.340;2023-02-15T00:06:45;70.60;;;29.87;;
17991;SDS011;9121;50.926;5.340;2023-02-15T00:09:13;73.53;;;31.70;;
17991;SDS011;9121;50.926;5.340;2023-02-15T00:11:40;65.63;;;29.77;;
17991;SDS011;9121;50.926;5.340;2023-02-15T00:14:10;70.53;;;30.00;;
17991;SDS011;9121;50.926;5.340;2023-02-15T00:16:38;69.33;;;29.03;;
17991;SDS011;9121;50.926;5.340;2023-02-15T00:19:07;69.53;;;28.43;;
17991;SDS011;9121;50.926;5.340;2023-02-15T00:21:35;78.70;;;28.97;;
17991;SDS011;9121;50.926;5.340;2023-02-15T00:24:03;76.43;;;28.83;;
17991;SDS011;9121;50.926;5.340;2023-02-15T00:26:32;64.70;;;29.13;;
17991;SDS011;9121;50.926;5.340;2023-02-15T00:28:59;69.03;;;29.93;;
17991;SDS011;9121;50.926;5.340;2023-02-15T00:31:28;73.27;;;29.23;;
17991;SDS011;9121;50.926;5.340;2023-02-15T00:34:00;73.60;;;27.67;;
17991;SDS011;9121;50.926;5.340;2023-02-15T00:36:27;66.40;;;28.30;;
17991;SDS011;9121;50.926;5.340;2023-02-15T00:38:54;66.20;;;28.67;;
17991;SDS011;9121;50.926;5.340;2023-02-15T00:41:21;70.00;;;29.53;;
17991;SDS011;9121;50.926;5.340;2023-02-15T00:43:48;67.80;;;27.23;;
17991;SDS011;9121;50.926;5.340;2023-02-15T00:46:15;63.60;;;27.10;;
17991;SDS011;9121;50.926;5.340;2023-02-15T00:48:43;63.90;;;28.00;;
17991;SDS011;9121;50.926;5.340;2023-02-15T00:51:10;62.60;;;27.73;;
17991;SDS011;9121;50.926;5.340;2023-02-15T00:53:37;65.47;;;27.27;;
17991;SDS011;9121;50.926;5.340;2023-02-15T00:56:04;65.43;;;28.57;;
17991;SDS011;9121;50.926;5.340;2023-02-15T00:58:31;66.50;;;28.30;;
17991;SDS011;9121;50.926;5.340;2023-02-15T01:01:02;71.13;;;26.60;;
17991;SDS011;9121;50.926;5.340;2023-02-15T01:03:30;64.80;;;25.77;;
17991;SDS011;9121;50.926;5.340;2023-02-15T01:05:59;61.53;;;26.60;;
17991;SDS011;9121;50.926;5.340;2023-02-15T01:08:26;71.53;;;27.80;;
17991;SDS011;9121;50.926;5.340;2023-02-15T01:10:53;71.83;;;28.67;;
17991;SDS011;9121;50.926;5.340;2023-02-15T01:13:20;63.47;;;27.50;;
17991;SDS011;9121;50.926;5.340;2023-02-15T01:15:52;68.67;;;27.93;;
17991;SDS011;9121;50.926;5.340;2023-02-15T01:18:20;63.30;;;27.27;;
17991;SDS011;9121;50.926;5.340;2023-02-15T01:20:47;64.53;;;27.77;;
17991;SDS011;9121;50.926;5.340;2023-02-15T01:23:16;71.83;;;27.23;;
17991;SDS011;9121;50.926;5.340;2023-02-15T01:25:43;62.20;;;27.63;;
17991;SDS011;9121;50.926;5.340;2023-02-15T01:28:10;63.23;;;25.80;;
17991;SDS011;9121;50.926;5.340;2023-02-15T01:30:37;66.00;;;27.73;;
17991;SDS011;9121;50.926;5.340;2023-02-15T01:33:04;65.60;;;27.87;;
17991;SDS011;9121;50.926;5.340;2023-02-15T01:35:31;63.37;;;27.93;;
17991;SDS011;9121;50.926;5.340;2023-02-15T01:37:58;68.33;;;28.67;;
17991;SDS011;9121;50.926;5.340;2023-02-15T01:40:26;68.83;;;28.40;;
17991;SDS011;9121;50.926;5.340;2023-02-15T01:42:54;63.47;;;26.63;;
17991;SDS011;9121;50.926;5.340;2023-02-15T01:45:22;61.87;;;27.30;;
17991;SDS011;9121;50.926;5.340;2023-02-15T01:47:52;61.93;;;26.80;;
17991;SDS011;9121;50.926;5.340;2023-02-15T01:50:22;61.37;;;26.97;;
17991;SDS011;9121;50.926;5.340;2023-02-15T01:52:54;67.20;;;27.37;;
17991;SDS011;9121;50.926;5.340;2023-02-15T01:55:25;61.37;;;26.93;;
17991;SDS011;9121;50.926;5.340;2023-02-15T01:57:56;58.23;;;25.77;;
17991;SDS011;9121;50.926;5.340;2023-02-15T02:00:23;57.87;;;25.50;;
17991;SDS011;9121;50.926;5.340;2023-02-15T02:02:50;61.17;;;26.07;;
17991;SDS011;9121;50.926;5.340;2023-02-15T02:05:21;60.03;;;26.67;;
17991;SDS011;9121;50.926;5.340;2023-02-15T02:07:48;62.23;;;26.97;;
17991;SDS011;9121;50.926;5.340;2023-02-15T02:10:18;63.30;;;26.23;;
17991;SDS011;9121;50.926;5.340;2023-02-15T02:12:49;64.57;;;25.93;;
17991;SDS011;9121;50.926;5.340;2023-02-15T02:15:18;65.80;;;26.83;;
17991;SDS011;9121;50.926;5.340;2023-02-15T02:17:52;62.83;;;28.00;;
17991;SDS011;9121;50.926;5.340;2023-02-15T02:20:32;64.77;;;28.00;;
17991;SDS011;9121;50.926;5.340;2023-02-15T02:23:27;71.57;;;27.87;;
17991;SDS011;9121;50.926;5.340;2023-02-15T02:26:18;68.40;;;27.23;;
17991;SDS011;9121;50.926;5.340;2023-02-15T02:29:11;64.03;;;27.13;;
17991;SDS011;9121;50.926;5.340;2023-02-15T02:35:22;61.97;;;26.27;;
17991;SDS011;9121;50.926;5.340;2023-02-15T02:37:55;63.83;;;26.10;;
17991;SDS011;9121;50.926;5.340;2023-02-15T02:40:36;64.50;;;27.47;;
17991;SDS011;9121;50.926;5.340;2023-02-15T02:43:11;66.87;;;27.97;;
17991;SDS011;9121;50.926;5.340;2023-02-15T02:45:45;64.47;;;27.30;;
17991;SDS011;9121;50.926;5.340;2023-02-15T02:48:18;59.73;;;26.00;;
17991;SDS011;9121;50.926;5.340;2023-02-15T02:50:49;63.57;;;25.57;;
17991;SDS011;9121;50.926;5.340;2023-02-15T02:53:16;63.93;;;25.50;;
17991;SDS011;9121;50.926;5.340;2023-02-15T02:55:43;59.57;;;26.57;;
17991;SDS011;9121;50.926;5.340;2023-02-15T02:58:14;60.13;;;26.23;;
17991;SDS011;9121;50.926;5.340;2023-02-15T03:00:44;60.83;;;25.87;;
17991;SDS011;9121;50.926;5.340;2023-02-15T03:03:15;58.67;;;26.40;;
17991;SDS011;9121;50.926;5.340;2023-02-15T03:05:50;56.40;;;23.80;;
17991;SDS011;9121;50.926;5.340;2023-02-15T03:08:20;59.73;;;25.00;;
17991;SDS011;9121;50.926;5.340;2023-02-15T03:10:54;63.03;;;25.40;;
17991;SDS011;9121;50.926;5.340;2023-02-15T03:13:25;63.67;;;25.23;;
17991;SDS011;9121;50.926;5.340;2023-02-15T03:15:53;61.43;;;26.03;;
17991;SDS011;9121;50.926;5.340;2023-02-15T03:18:41;66.63;;;26.07;;
17991;SDS011;9121;50.926;5.340;2023-02-15T03:21:19;62.97;;;27.73;;
17991;SDS011;9121;50.926;5.340;2023-02-15T03:23:48;63.27;;;26.80;;
17991;SDS011;9121;50.926;5.340;2023-02-15T03:26:18;56.93;;;25.27;;
17991;SDS011;9121;50.926;5.340;2023-02-15T03:28:48;64.53;;;27.30;;
17991;SDS011;9121;50.926;5.340;2023-02-15T03:31:19;63.27;;;27.37;;
17991;SDS011;9121;50.926;5.340;2023-02-15T03:33:50;59.40;;;26.07;;
17991;SDS011;9121;50.926;5.340;2023-02-15T03:36:22;61.83;;;26.33;;
17991;SDS011;9121;50.926;5.340;2023-02-15T03:38:57;57.07;;;26.03;;
17991;SDS011;9121;50.926;5.340;2023-02-15T03:41:26;59.57;;;24.03;;
17991;SDS011;9121;50.926;5.340;2023-02-15T03:43:59;57.33;;;24.70;;
17991;SDS011;9121;50.926;5.340;2023-02-15T03:46:33;64.27;;;26.80;;
17991;SDS011;9121;50.926;5.340;2023-02-15T03:49:06;57.17;;;25.23;;
17991;SDS011;9121;50.926;5.340;2023-02-15T03:51:37;71.97;;;27.10;;
17991;SDS011;9121;50.926;5.340;2023-02-15T03:54:09;61.53;;;26.47;;
17991;SDS011;9121;50.926;5.340;2023-02-15T03:56:39;56.27;;;25.07;;
17991;SDS011;9121;50.926;5.340;2023-02-15T03:59:28;62.03;;;28.17;;
17991;SDS011;9121;50.926;5.340;2023-02-15T04:02:14;72.07;;;26.67;;
17991;SDS011;9121;50.926;5.340;2023-02-15T04:04:46;73.63;;;27.07;;
17991;SDS011;9121;50.926;5.340;2023-02-15T04:07:15;68.53;;;27.37;;
17991;SDS011;9121;50.926;5.340;2023-02-15T04:09:42;63.10;;;27.60;;
17991;SDS011;9121;50.926;5.340;2023-02-15T04:12:26;67.47;;;26.37;;
17991;SDS011;9121;50.926;5.340;2023-02-15T04:14:53;60.03;;;26.77;;
17991;SDS011;9121;50.926;5.340;2023-02-15T04:17:38;64.87;;;27.83;;
17991;SDS011;9121;50.926;5.340;2023-02-15T04:20:05;57.20;;;25.27;;
17991;SDS011;9121;50.926;5.340;2023-02-15T04:22:53;63.67;;;26.83;;
17991;SDS011;9121;50.926;5.340;2023-02-15T04:25:37;65.93;;;26.57;;
17991;SDS011;9121;50.926;5.340;2023-02-15T04:28:04;58.77;;;26.53;;
17991;SDS011;9121;50.926;5.340;2023-02-15T04:30:32;61.83;;;27.60;;
17991;SDS011;9121;50.926;5.340;2023-02-15T04:32:59;62.00;;;26.53;;
17991;SDS011;9121;50.926;5.340;2023-02-15T04:35:26;65.80;;;28.13;;
17991;SDS011;9121;50.926;5.340;2023-02-15T04:37:55;71.77;;;28.40;;
17991;SDS011;9121;50.926;5.340;2023-02-15T04:40:21;63.30;;;28.43;;
17991;SDS011;9121;50.926;5.340;2023-02-15T04:42:48;68.07;;;27.30;;
17991;SDS011;9121;50.926;5.340;2023-02-15T04:45:15;66.27;;;28.37;;
17991;SDS011;9121;50.926;5.340;2023-02-15T04:47:43;61.17;;;26.93;;
17991;SDS011;9121;50.926;5.340;2023-02-15T04:50:10;58.70;;;26.93;;
17991;SDS011;9121;50.926;5.340;2023-02-15T04:52:37;61.10;;;27.40;;
17991;SDS011;9121;50.926;5.340;2023-02-15T04:55:06;69.90;;;28.40;;
17991;SDS011;9121;50.926;5.340;2023-02-15T04:57:33;70.17;;;27.47;;
17991;SDS011;9121;50.926;5.340;2023-02-15T05:00:00;65.33;;;27.40;;
17991;SDS011;9121;50.926;5.340;2023-02-15T05:02:27;64.30;;;26.70;;
17991;SDS011;9121;50.926;5.340;2023-02-15T05:04:54;67.53;;;27.80;;
17991;SDS011;9121;50.926;5.340;2023-02-15T05:07:21;56.57;;;25.77;;
17991;SDS011;9121;50.926;5.340;2023-02-15T05:09:48;64.20;;;25.90;;
17991;SDS011;9121;50.926;5.340;2023-02-15T05:12:17;60.70;;;26.33;;
17991;SDS011;9121;50.926;5.340;2023-02-15T05:14:44;55.57;;;24.30;;
17991;SDS011;9121;50.926;5.340;2023-02-15T05:17:11;57.10;;;24.50;;
17991;SDS011;9121;50.926;5.340;2023-02-15T05:19:38;68.70;;;25.77;;
17991;SDS011;9121;50.926;5.340;2023-02-15T05:22:04;65.27;;;26.40;;
17991;SDS011;9121;50.926;5.340;2023-02-15T05:24:31;59.57;;;25.50;;
17991;SDS011;9121;50.926;5.340;2023-02-15T05:27:17;66.80;;;25.00;;
17991;SDS011;9121;50.926;5.340;2023-02-15T05:30:02;58.03;;;25.43;;
17991;SDS011;9121;50.926;5.340;2023-02-15T05:32:29;60.80;;;25.63;;
17991;SDS011;9121;50.926;5.340;2023-02-15T05:34:56;63.50;;;26.17;;
17991;SDS011;9121;50.926;5.340;2023-02-15T05:37:23;66.97;;;26.40;;
17991;SDS011;9121;50.926;5.340;2023-02-15T05:39:50;62.33;;;24.80;;
17991;SDS011;9121;50.926;5.340;2023-02-15T05:42:18;67.57;;;26.37;;
17991;SDS011;9121;50.926;5.340;2023-02-15T05:44:45;78.10;;;28.10;;
17991;SDS011;9121;50.926;5.340;2023-02-15T05:47:12;68.00;;;26.07;;
17991;SDS011;9121;50.926;5.340;2023-02-15T05:49:39;66.17;;;28.37;;
17991;SDS011;9121;50.926;5.340;2023-02-15T05:52:06;63.13;;;27.27;;
17991;SDS011;9121;50.926;5.340;2023-02-15T05:54:33;67.97;;;28.97;;
17991;SDS011;9121;50.926;5.340;2023-02-15T05:57:00;69.77;;;29.30;;
17991;SDS011;9121;50.926;5.340;2023-02-15T05:59:28;69.10;;;27.40;;
17991;SDS011;9121;50.926;5.340;2023-02-15T06:01:55;77.93;;;27.77;;
17991;SDS011;9121;50.926;5.340;2023-02-15T06:04:22;68.97;;;27.00;;
17991;SDS011;9121;50.926;5.340;2023-02-15T06:06:49;68.77;;;28.00;;
17991;SDS011;9121;50.926;5.340;2023-02-15T06:09:16;62.70;;;26.93;;
17991;SDS011;9121;50.926;5.340;2023-02-15T06:11:44;70.93;;;27.80;;
17991;SDS011;9121;50.926;5.340;2023-02-15T06:14:11;74.23;;;27.87;;
17991;SDS011;9121;50.926;5.340;2023-02-15T06:16:40;68.43;;;27.23;;
17991;SDS011;9121;50.926;5.340;2023-02-15T06:19:07;64.97;;;27.47;;
17991;SDS011;9121;50.926;5.340;2023-02-15T06:21:34;64.30;;;27.47;;
17991;SDS011;9121;50.926;5.340;2023-02-15T06:24:00;70.27;;;28.13;;
17991;SDS011;9121;50.926;5.340;2023-02-15T06:26:27;73.63;;;28.10;;
17991;SDS011;9121;50.926;5.340;2023-02-15T06:28:54;74.53;;;29.37;;
17991;SDS011;9121;50.926;5.340;2023-02-15T06:31:21;62.03;;;27.70;;
17991;SDS011;9121;50.926;5.340;2023-02-15T06:33:50;66.80;;;28.03;;
17991;SDS011;9121;50.926;5.340;2023-02-15T06:36:17;70.50;;;28.07;;
17991;SDS011;9121;50.926;5.340;2023-02-15T06:38:44;70.53;;;30.80;;
17991;SDS011;9121;50.926;5.340;2023-02-15T06:41:11;65.67;;;27.73;;
17991;SDS011;9121;50.926;5.340;2023-02-15T06:43:37;64.93;;;27.87;;
17991;SDS011;9121;50.926;5.340;2023-02-15T06:46:04;71.07;;;28.67;;
17991;SDS011;9121;50.926;5.340;2023-02-15T06:48:31;84.00;;;29.73;;
17991;SDS011;9121;50.926;5.340;2023-02-15T06:51:00;85.00;;;30.20;;
17991;SDS011;9121;50.926;5.340;2023-02-15T06:53:27;75.13;;;28.53;;
17991;SDS011;9121;50.926;5.340;2023-02-15T06:55:59;66.27;;;27.93;;
17991;SDS011;9121;50.926;5.340;2023-02-15T06:58:28;67.33;;;28.67;;
17991;SDS011;9121;50.926;5.340;2023-02-15T07:00:55;67.67;;;28.47;;
17991;SDS011;9121;50.926;5.340;2023-02-15T07:03:22;63.77;;;27.40;;
17991;SDS011;9121;50.926;5.340;2023-02-15T07:05:51;72.33;;;29.43;;
17991;SDS011;9121;50.926;5.340;2023-02-15T07:08:22;70.30;;;28.40;;
17991;SDS011;9121;50.926;5.340;2023-02-15T07:10:49;69.50;;;28.47;;
17991;SDS011;9121;50.926;5.340;2023-02-15T07:13:16;72.30;;;27.80;;
17991;SDS011;9121;50.926;5.340;2023-02-15T07:15:42;68.30;;;28.30;;
17991;SDS011;9121;50.926;5.340;2023-02-15T07:18:09;77.03;;;29.60;;
17991;SDS011;9121;50.926;5.340;2023-02-15T07:20:36;74.63;;;29.13;;
17991;SDS011;9121;50.926;5.340;2023-02-15T07:23:07;76.00;;;29.50;;
17991;SDS011;9121;50.926;5.340;2023-02-15T07:25:36;84.80;;;29.77;;
17991;SDS011;9121;50.926;5.340;2023-02-15T07:28:03;84.97;;;31.07;;
17991;SDS011;9121;50.926;5.340;2023-02-15T07:30:30;105.30;;;37.07;;
17991;SDS011;9121;50.926;5.340;2023-02-15T07:32:57;82.00;;;29.87;;
17991;SDS011;9121;50.926;5.340;2023-02-15T07:35:46;72.50;;;30.50;;
17991;SDS011;9121;50.926;5.340;2023-02-15T07:38:13;76.50;;;28.63;;
17991;SDS011;9121;50.926;5.340;2023-02-15T07:40:42;76.53;;;31.07;;
17991;SDS011;9121;50.926;5.340;2023-02-15T07:43:09;71.30;;;30.27;;
17991;SDS011;9121;50.926;5.340;2023-02-15T07:45:36;72.07;;;30.13;;
17991;SDS011;9121;50.926;5.340;2023-02-15T07:48:03;83.77;;;32.00;;
17991;SDS011;9121;50.926;5.340;2023-02-15T07:50:31;71.07;;;28.73;;
17991;SDS011;9121;50.926;5.340;2023-02-15T07:52:58;76.73;;;30.20;;
17991;SDS011;9121;50.926;5.340;2023-02-15T07:55:27;74.00;;;29.33;;
17991;SDS011;9121;50.926;5.340;2023-02-15T07:57:55;89.90;;;29.37;;
17991;SDS011;9121;50.926;5.340;2023-02-15T08:00:22;71.40;;;30.40;;
17991;SDS011;9121;50.926;5.340;2023-02-15T08:02:51;72.53;;;31.00;;
17991;SDS011;9121;50.926;5.340;2023-02-15T08:05:33;93.23;;;30.57;;
17991;SDS011;9121;50.926;5.340;2023-02-15T08:08:00;87.00;;;30.30;;
17991;SDS011;9121;50.926;5.340;2023-02-15T08:10:27;84.47;;;30.87;;
17991;SDS011;9121;50.926;5.340;2023-02-15T08:13:09;72.80;;;29.93;;
17991;SDS011;9121;50.926;5.340;2023-02-15T08:15:36;73.37;;;27.87;;
17991;SDS011;9121;50.926;5.340;2023-02-15T08:18:03;83.67;;;30.03;;
17991;SDS011;9121;50.926;5.340;2023-02-15T08:20:30;80.97;;;30.87;;
17991;SDS011;9121;50.926;5.340;2023-02-15T08:22:57;84.87;;;31.27;;
17991;SDS011;9121;50.926;5.340;2023-02-15T08:25:25;73.77;;;29.60;;
17991;SDS011;9121;50.926;5.340;2023-02-15T08:27:52;80.03;;;31.03;;
17991;SDS011;9121;50.926;5.340;2023-02-15T08:30:20;73.43;;;30.83;;
17991;SDS011;9121;50.926;5.340;2023-02-15T08:32:47;77.67;;;30.03;;
17991;SDS011;9121;50.926;5.340;2023-02-15T08:35:14;73.13;;;30.53;;
17991;SDS011;9121;50.926;5.340;2023-02-15T08:37:42;78.63;;;29.63;;
17991;SDS011;9121;50.926;5.340;2023-02-15T08:40:10;70.57;;;29.77;;
17991;SDS011;9121;50.926;5.340;2023-02-15T08:42:39;73.40;;;29.47;;
17991;SDS011;9121;50.926;5.340;2023-02-15T08:45:06;76.10;;;29.93;;
17991;SDS011;9121;50.926;5.340;2023-02-15T08:47:36;89.73;;;31.13;;
17991;SDS011;9121;50.926;5.340;2023-02-15T08:50:03;75.03;;;27.87;;
17991;SDS011;9121;50.926;5.340;2023-02-15T08:52:31;74.23;;;29.07;;
17991;SDS011;9121;50.926;5.340;2023-02-15T08:54:58;78.17;;;29.23;;
17991;SDS011;9121;50.926;5.340;2023-02-15T08:57:25;89.57;;;30.70;;
17991;SDS011;9121;50.926;5.340;2023-02-15T08:59:53;72.00;;;28.10;;
17991;SDS011;9121;50.926;5.340;2023-02-15T09:02:20;78.47;;;29.70;;
17991;SDS011;9121;50.926;5.340;2023-02-15T09:04:48;66.50;;;29.63;;
17991;SDS011;9121;50.926;5.340;2023-02-15T09:07:16;71.87;;;31.47;;
17991;SDS011;9121;50.926;5.340;2023-02-15T09:09:44;72.23;;;29.30;;
17991;SDS011;9121;50.926;5.340;2023-02-15T09:12:12;77.20;;;29.67;;
17991;SDS011;9121;50.926;5.340;2023-02-15T09:14:39;73.53;;;32.10;;
17991;SDS011;9121;50.926;5.340;2023-02-15T09:17:06;77.67;;;30.70;;
17991;SDS011;9121;50.926;5.340;2023-02-15T09:19:33;73.77;;;29.70;;
17991;SDS011;9121;50.926;5.340;2023-02-15T09:22:01;69.03;;;27.67;;
17991;SDS011;9121;50.926;5.340;2023-02-15T09:24:31;78.47;;;30.10;;
17991;SDS011;9121;50.926;5.340;2023-02-15T09:26:58;69.97;;;28.63;;
17991;SDS011;9121;50.926;5.340;2023-02-15T09:29:25;67.60;;;29.07;;
17991;SDS011;9121;50.926;5.340;2023-02-15T09:31:52;68.33;;;28.47;;
17991;SDS011;9121;50.926;5.340;2023-02-15T09:34:20;74.40;;;28.47;;
17991;SDS011;9121;50.926;5.340;2023-02-15T09:36:48;59.70;;;25.53;;
17991;SDS011;9121;50.926;5.340;2023-02-15T09:39:18;59.97;;;23.23;;
17991;SDS011;9121;50.926;5.340;2023-02-15T09:41:50;50.80;;;21.63;;
17991;SDS011;9121;50.926;5.340;2023-02-15T09:44:43;40.97;;;19.57;;
17991;SDS011;9121;50.926;5.340;2023-02-15T09:47:34;48.73;;;21.37;;
17991;SDS011;9121;50.926;5.340;2023-02-15T09:50:20;50.57;;;19.60;;
17991;SDS011;9121;50.926;5.340;2023-02-15T09:52:55;43.83;;;18.77;;
17991;SDS011;9121;50.926;5.340;2023-02-15T09:55:48;47.03;;;20.40;;
17991;SDS011;9121;50.926;5.340;2023-02-15T09:58:23;51.43;;;21.70;;
17991;SDS011;9121;50.926;5.340;2023-02-15T10:01:00;46.60;;;20.13;;
17991;SDS011;9121;50.926;5.340;2023-02-15T10:03:34;64.30;;;20.27;;
17991;SDS011;9121;50.926;5.340;2023-02-15T10:06:13;43.60;;;19.07;;
17991;SDS011;9121;50.926;5.340;2023-02-15T10:09:01;42.40;;;19.00;;
17991;SDS011;9121;50.926;5.340;2023-02-15T10:11:38;39.80;;;19.60;;
17991;SDS011;9121;50.926;5.340;2023-02-15T10:14:20;38.53;;;18.73;;
17991;SDS011;9121;50.926;5.340;2023-02-15T10:17:20;41.93;;;19.37;;
17991;SDS011;9121;50.926;5.340;2023-02-15T10:20:00;44.30;;;18.83;;
17991;SDS011;9121;50.926;5.340;2023-02-15T10:22:37;43.87;;;18.33;;
17991;SDS011;9121;50.926;5.340;2023-02-15T10:25:16;38.43;;;18.57;;
17991;SDS011;9121;50.926;5.340;2023-02-15T10:28:01;47.57;;;19.67;;
17991;SDS011;9121;50.926;5.340;2023-02-15T10:30:34;45.57;;;19.77;;
17991;SDS011;9121;50.926;5.340;2023-02-15T10:33:09;50.40;;;19.30;;
17991;SDS011;9121;50.926;5.340;2023-02-15T10:35:45;48.57;;;20.13;;
17991;SDS011;9121;50.926;5.340;2023-02-15T10:38:20;45.50;;;20.33;;
17991;SDS011;9121;50.926;5.340;2023-02-15T10:40:54;40.83;;;18.93;;
17991;SDS011;9121;50.926;5.340;2023-02-15T10:43:35;43.10;;;21.00;;
17991;SDS011;9121;50.926;5.340;2023-02-15T10:46:13;41.60;;;19.93;;
17991;SDS011;9121;50.926;5.340;2023-02-15T10:51:45;44.00;;;21.17;;
17991;SDS011;9121;50.926;5.340;2023-02-15T10:54:21;43.10;;;19.87;;
17991;SDS011;9121;50.926;5.340;2023-02-15T10:57:00;43.17;;;19.50;;
17991;SDS011;9121;50.926;5.340;2023-02-15T10:59:39;42.93;;;20.93;;
17991;SDS011;9121;50.926;5.340;2023-02-15T11:02:31;42.03;;;18.93;;
17991;SDS011;9121;50.926;5.340;2023-02-15T11:05:16;45.13;;;20.23;;
17991;SDS011;9121;50.926;5.340;2023-02-15T11:07:52;65.37;;;21.87;;
17991;SDS011;9121;50.926;5.340;2023-02-15T11:10:26;44.43;;;19.87;;
17991;SDS011;9121;50.926;5.340;2023-02-15T11:12:56;47.20;;;20.57;;
17991;SDS011;9121;50.926;5.340;2023-02-15T11:15:30;46.40;;;20.20;;
17991;SDS011;9121;50.926;5.340;2023-02-15T11:18:03;40.65;;;19.90;;
17991;SDS011;9121;50.926;5.340;2023-02-15T11:20:36;44.25;;;19.70;;
17991;SDS011;9121;50.926;5.340;2023-02-15T11:23:10;44.03;;;19.63;;
17991;SDS011;9121;50.926;5.340;2023-02-15T11:25:42;37.93;;;18.43;;
17991;SDS011;9121;50.926;5.340;2023-02-15T11:28:13;38.58;;;16.55;;
17991;SDS011;9121;50.926;5.340;2023-02-15T11:30:47;44.17;;;18.73;;
17991;SDS011;9121;50.926;5.340;2023-02-15T11:33:18;39.33;;;17.38;;
17991;SDS011;9121;50.926;5.340;2023-02-15T11:35:49;43.88;;;19.00;;
17991;SDS011;9121;50.926;5.340;2023-02-15T11:38:20;40.58;;;18.27;;
17991;SDS011;9121;50.926;5.340;2023-02-15T11:40:51;37.20;;;17.05;;
17991;SDS011;9121;50.926;5.340;2023-02-15T11:43:22;51.63;;;19.43;;
17991;SDS011;9121;50.926;5.340;2023-02-15T11:45:55;41.53;;;18.83;;
17991;SDS011;9121;50.926;5.340;2023-02-15T11:48:22;44.97;;;19.10;;
17991;SDS011;9121;50.926;5.340;2023-02-15T11:50:49;37.80;;;18.40;;
17991;SDS011;9121;50.926;5.340;2023-02-15T11:53:17;39.38;;;18.02;;
17991;SDS011;9121;50.926;5.340;2023-02-15T11:55:47;38.30;;;17.95;;
17991;SDS011;9121;50.926;5.340;2023-02-15T11:58:19;42.60;;;19.55;;
17991;SDS011;9121;50.926;5.340;2023-02-15T12:00:56;39.30;;;18.85;;
17991;SDS011;9121;50.926;5.340;2023-02-15T12:03:28;43.00;;;18.52;;
17991;SDS011;9121;50.926;5.340;2023-02-15T12:06:03;46.40;;;18.35;;
17991;SDS011;9121;50.926;5.340;2023-02-15T12:08:34;44.33;;;19.15;;
17991;SDS011;9121;50.926;5.340;2023-02-15T12:11:08;40.63;;;19.13;;
17991;SDS011;9121;50.926;5.340;2023-02-15T12:13:44;43.38;;;19.45;;
17991;SDS011;9121;50.926;5.340;2023-02-15T12:16:23;41.67;;;20.05;;
17991;SDS011;9121;50.926;5.340;2023-02-15T12:18:51;38.58;;;18.35;;
17991;SDS011;9121;50.926;5.340;2023-02-15T12:21:25;41.92;;;18.95;;
17991;SDS011;9121;50.926;5.340;2023-02-15T12:23:56;41.58;;;18.38;;
17991;SDS011;9121;50.926;5.340;2023-02-15T12:26:24;40.97;;;18.70;;
17991;SDS011;9121;50.926;5.340;2023-02-15T12:28:53;43.30;;;19.23;;
17991;SDS011;9121;50.926;5.340;2023-02-15T12:31:26;41.60;;;17.77;;
17991;SDS011;9121;50.926;5.340;2023-02-15T12:33:57;40.67;;;18.45;;
17991;SDS011;9121;50.926;5.340;2023-02-15T12:36:29;45.47;;;19.50;;
17991;SDS011;9121;50.926;5.340;2023-02-15T12:39:04;40.22;;;18.25;;
17991;SDS011;9121;50.926;5.340;2023-02-15T12:41:44;51.95;;;19.70;;
17991;SDS011;9121;50.926;5.340;2023-02-15T12:44:15;41.53;;;18.70;;
17991;SDS011;9121;50.926;5.340;2023-02-15T12:46:53;43.35;;;19.23;;
17991;SDS011;9121;50.926;5.340;2023-02-15T12:49:23;38.10;;;18.92;;
17991;SDS011;9121;50.926;5.340;2023-02-15T12:51:51;35.63;;;17.75;;
17991;SDS011;9121;50.926;5.340;2023-02-15T12:54:26;36.53;;;18.23;;
17991;SDS011;9121;50.926;5.340;2023-02-15T12:56:57;39.00;;;19.17;;
17991;SDS011;9121;50.926;5.340;2023-02-15T12:59:24;42.85;;;18.75;;
17991;SDS011;9121;50.926;5.340;2023-02-15T13:01:53;47.63;;;19.23;;
17991;SDS011;9121;50.926;5.340;2023-02-15T13:04:21;42.67;;;19.50;;
17991;SDS011;9121;50.926;5.340;2023-02-15T13:06:51;39.30;;;19.27;;
17991;SDS011;9121;50.926;5.340;2023-02-15T13:09:25;38.83;;;18.25;;
17991;SDS011;9121;50.926;5.340;2023-02-15T13:12:14;33.13;;;17.58;;
17991;SDS011;9121;50.926;5.340;2023-02-15T13:14:46;38.30;;;18.48;;
17991;SDS011;9121;50.926;5.340;2023-02-15T13:17:18;48.30;;;20.23;;
17991;SDS011;9121;50.926;5.340;2023-02-15T13:19:50;37.95;;;19.35;;
17991;SDS011;9121;50.926;5.340;2023-02-15T13:22:20;36.28;;;19.70;;
17991;SDS011;9121;50.926;5.340;2023-02-15T13:24:51;36.03;;;19.02;;
17991;SDS011;9121;50.926;5.340;2023-02-15T13:27:22;37.83;;;18.63;;
17991;SDS011;9121;50.926;5.340;2023-02-15T13:30:03;38.08;;;18.48;;
17991;SDS011;9121;50.926;5.340;2023-02-15T13:32:39;37.35;;;19.33;;
17991;SDS011;9121;50.926;5.340;2023-02-15T13:35:10;38.60;;;19.27;;
17991;SDS011;9121;50.926;5.340;2023-02-15T13:37:55;43.65;;;19.42;;
17991;SDS011;9121;50.926;5.340;2023-02-15T13:40:40;40.00;;;19.23;;
17991;SDS011;9121;50.926;5.340;2023-02-15T13:43:20;40.42;;;19.58;;
17991;SDS011;9121;50.926;5.340;2023-02-15T13:46:03;39.85;;;17.73;;
17991;SDS011;9121;50.926;5.340;2023-02-15T13:48:44;37.50;;;19.23;;
17991;SDS011;9121;50.926;5.340;2023-02-15T13:51:20;34.22;;;18.85;;
17991;SDS011;9121;50.926;5.340;2023-02-15T13:54:04;40.50;;;19.60;;
17991;SDS011;9121;50.926;5.340;2023-02-15T13:56:49;42.67;;;18.35;;
17991;SDS011;9121;50.926;5.340;2023-02-15T13:59:33;38.47;;;19.20;;
17991;SDS011;9121;50.926;5.340;2023-02-15T14:02:23;38.05;;;18.10;;
17991;SDS011;9121;50.926;5.340;2023-02-15T14:05:09;40.47;;;18.38;;
17991;SDS011;9121;50.926;5.340;2023-02-15T14:07:56;39.47;;;18.17;;
17991;SDS011;9121;50.926;5.340;2023-02-15T14:10:43;43.90;;;19.45;;
17991;SDS011;9121;50.926;5.340;2023-02-15T14:16:24;41.42;;;19.15;;
17991;SDS011;9121;50.926;5.340;2023-02-15T14:19:02;45.72;;;19.02;;
17991;SDS011;9121;50.926;5.340;2023-02-15T14:21:37;54.38;;;21.48;;
17991;SDS011;9121;50.926;5.340;2023-02-15T14:24:18;41.42;;;19.40;;
17991;SDS011;9121;50.926;5.340;2023-02-15T14:26:55;46.78;;;19.05;;
17991;SDS011;9121;50.926;5.340;2023-02-15T14:29:30;40.55;;;18.55;;
17991;SDS011;9121;50.926;5.340;2023-02-15T14:32:11;47.63;;;19.80;;
17991;SDS011;9121;50.926;5.340;2023-02-15T14:34:43;41.38;;;19.63;;
17991;SDS011;9121;50.926;5.340;2023-02-15T14:37:16;43.17;;;19.73;;
17991;SDS011;9121;50.926;5.340;2023-02-15T14:39:51;42.20;;;19.02;;
17991;SDS011;9121;50.926;5.340;2023-02-15T14:42:39;39.67;;;19.08;;
17991;SDS011;9121;50.926;5.340;2023-02-15T14:45:16;52.33;;;19.83;;
17991;SDS011;9121;50.926;5.340;2023-02-15T14:47:51;43.78;;;19.58;;
17991;SDS011;9121;50.926;5.340;2023-02-15T14:50:44;43.47;;;20.30;;
17991;SDS011;9121;50.926;5.340;2023-02-15T14:53:22;48.75;;;21.02;;
17991;SDS011;9121;50.926;5.340;2023-02-15T14:56:18;42.10;;;20.95;;
17991;SDS011;9121;50.926;5.340;2023-02-15T15:01:41;41.30;;;19.83;;
17991;SDS011;9121;50.926;5.340;2023-02-15T15:04:21;39.47;;;20.35;;
17991;SDS011;9121;50.926;5.340;2023-02-15T15:06:57;42.50;;;20.13;;
17991;SDS011;9121;50.926;5.340;2023-02-15T15:09:28;50.80;;;21.65;;
17991;SDS011;9121;50.926;5.340;2023-02-15T15:12:12;47.08;;;22.20;;
17991;SDS011;9121;50.926;5.340;2023-02-15T15:14:42;41.67;;;20.83;;